createdAt,value
2023-01-11T00:01:50.065Z,100671.59
2023-01-11T00:04:18.007Z,100662.13
2023-01-11T00:06:46.266Z,100654.94
2023-01-11T00:09:15.990Z,100640.50
2023-01-11T00:11:45.112Z,100649.13
2023-01-11T00:14:13.009Z,100642.88
2023-01-11T00:16:40.682Z,100652.47
2023-01-11T00:19:08.510Z,100641.59
2023-01-11T00:21:36.212Z,100645.28
2023-01-11T00:24:03.913Z,100628.06
2023-01-11T00:26:31.734Z,100629.00
2023-01-11T00:29:00.740Z,100630.19
2023-01-11T00:31:28.615Z,100628.41
2023-01-11T00:33:56.675Z,100630.34
2023-01-11T00:36:24.385Z,100620.09
2023-01-11T00:38:55.488Z,100620.94
2023-01-11T00:41:41.970Z,100617.06
2023-01-11T00:44:29.943Z,100626.84
2023-01-11T00:47:15.405Z,100611.53
2023-01-11T00:49:43.749Z,100600.97
2023-01-11T00:52:11.565Z,100599.16
2023-01-11T00:54:40.552Z,100598.19
2023-01-11T00:57:09.155Z,100603.72
2023-01-11T00:59:40.563Z,100595.25
2023-01-11T01:02:08.890Z,100604.13
2023-01-11T01:04:36.991Z,100601.72
2023-01-11T01:07:07.202Z,100591.41
2023-01-11T01:10:14.264Z,100591.94
2023-01-11T01:12:55.924Z,100595.50
2023-01-11T01:15:25.050Z,100583.84
2023-01-11T01:17:54.794Z,100586.72
2023-01-11T01:20:45.750Z,100576.03
2023-01-11T01:23:13.473Z,100585.34
2023-01-11T01:25:41.232Z,100581.22
2023-01-11T01:28:16.851Z,100573.94
2023-01-11T01:30:51.244Z,100580.41
2023-01-11T01:33:19.021Z,100575.81
2023-01-11T01:35:46.796Z,100577.31
2023-01-11T01:38:14.506Z,100568.28
2023-01-11T01:40:43.071Z,100577.63
2023-01-11T01:43:12.505Z,100580.97
2023-01-11T01:45:41.428Z,100568.44
2023-01-11T01:48:14.174Z,100574.69
2023-01-11T01:50:46.980Z,100574.22
2023-01-11T01:53:19.522Z,100571.88
2023-01-11T01:55:53.058Z,100575.69
2023-01-11T01:58:24.365Z,100575.34
2023-01-11T02:00:52.960Z,100573.00
2023-01-11T02:03:26.472Z,100568.28
2023-01-11T02:05:55.603Z,100568.03
2023-01-11T02:08:30.379Z,100569.13
2023-01-11T02:10:58.536Z,100569.94
2023-01-11T02:13:26.765Z,100579.13
2023-01-11T02:16:08.620Z,100576.06
2023-01-11T02:18:39.403Z,100573.91
2023-01-11T02:21:22.548Z,100567.19
2023-01-11T02:24:11.096Z,100565.91
2023-01-11T02:27:17.545Z,100558.69
2023-01-11T02:29:53.874Z,100556.91
2023-01-11T02:32:28.567Z,100556.19
2023-01-11T02:35:06.065Z,100544.38
2023-01-11T02:37:42.278Z,100536.56
2023-01-11T02:40:17.876Z,100543.22
2023-01-11T02:43:11.757Z,100536.38
2023-01-11T02:45:49.592Z,100525.56
2023-01-11T02:48:25.004Z,100527.63
2023-01-11T02:51:00.129Z,100514.88
2023-01-11T02:53:32.254Z,100514.88
2023-01-11T02:56:06.850Z,100512.66
2023-01-11T02:58:38.442Z,100522.25
2023-01-11T03:01:08.754Z,100508.78
2023-01-11T03:03:36.536Z,100507.16
2023-01-11T03:06:08.159Z,100506.84
2023-01-11T03:08:53.453Z,100503.41
2023-01-11T03:11:42.027Z,100505.75
2023-01-11T03:14:21.358Z,100498.41
2023-01-11T03:16:56.598Z,100507.19
2023-01-11T03:19:35.684Z,100500.63
2023-01-11T03:22:08.993Z,100501.06
2023-01-11T03:24:45.785Z,100495.63
2023-01-11T03:27:23.120Z,100486.56
2023-01-11T03:29:55.695Z,100487.72
2023-01-11T03:32:32.557Z,100485.06
2023-01-11T03:35:13.450Z,100479.47
2023-01-11T03:37:48.041Z,100479.09
2023-01-11T03:40:19.217Z,100473.13
2023-01-11T03:43:12.028Z,100471.00
2023-01-11T03:45:46.720Z,100464.09
2023-01-11T03:48:19.064Z,100458.22
2023-01-11T03:50:48.913Z,100455.69
2023-01-11T03:53:20.332Z,100449.31
2023-01-11T03:55:53.165Z,100454.34
2023-01-11T03:58:20.890Z,100445.00
2023-01-11T04:00:49.477Z,100453.22
2023-01-11T04:03:18.589Z,100440.44
2023-01-11T04:05:51.740Z,100451.16
2023-01-11T04:08:19.504Z,100447.09
2023-01-11T04:10:47.314Z,100439.16
2023-01-11T04:13:15.075Z,100439.59
2023-01-11T04:15:42.803Z,100432.63
2023-01-11T04:18:10.560Z,100419.28
2023-01-11T04:20:41.188Z,100423.16
2023-01-11T04:23:10.645Z,100429.28
2023-01-11T04:25:38.719Z,100412.72
2023-01-11T04:28:06.629Z,100411.19
2023-01-11T04:30:35.939Z,100408.56
2023-01-11T04:33:03.626Z,100403.94
2023-01-11T04:35:31.355Z,100390.72
2023-01-11T04:38:00.501Z,100399.47
2023-01-11T04:40:28.234Z,100403.41
2023-01-11T04:42:54.971Z,100395.47
2023-01-11T04:45:22.915Z,100398.38
2023-01-11T04:47:55.526Z,100388.38
2023-01-11T04:50:23.762Z,100396.00
2023-01-11T04:52:51.472Z,100395.03
2023-01-11T04:55:21.069Z,100392.13
2023-01-11T04:57:48.821Z,100390.56
2023-01-11T05:00:17.276Z,100397.41
2023-01-11T05:02:44.958Z,100400.06
2023-01-11T05:05:13.009Z,100395.03
2023-01-11T05:07:40.959Z,100398.09
2023-01-11T05:10:10.066Z,100392.25
2023-01-11T05:12:39.154Z,100395.28
2023-01-11T05:15:08.399Z,100389.16
2023-01-11T05:17:36.131Z,100385.00
2023-01-11T05:20:05.395Z,100392.66
2023-01-11T05:22:33.095Z,100392.66
2023-01-11T05:25:00.840Z,100381.78
2023-01-11T05:27:28.491Z,100380.25
2023-01-11T05:29:57.566Z,100372.31
2023-01-11T05:32:25.327Z,100374.13
2023-01-11T05:34:53.032Z,100373.28
2023-01-11T05:37:20.800Z,100364.38
2023-01-11T05:39:48.593Z,100370.50
2023-01-11T05:42:16.696Z,100368.69
2023-01-11T05:45:01.769Z,100368.56
2023-01-11T05:47:30.877Z,100361.97
2023-01-11T05:49:58.552Z,100363.00
2023-01-11T05:52:26.325Z,100368.56
2023-01-11T05:54:54.055Z,100357.41
2023-01-11T05:57:21.760Z,100350.44
2023-01-11T05:59:49.787Z,100353.91
2023-01-11T06:02:17.632Z,100351.69
2023-01-11T06:04:46.661Z,100346.53
2023-01-11T06:07:14.341Z,100341.38
2023-01-11T06:09:42.133Z,100345.41
2023-01-11T06:12:09.833Z,100337.88
2023-01-11T06:14:38.287Z,100336.53
2023-01-11T06:17:06.045Z,100332.19
2023-01-11T06:19:33.765Z,100317.28
2023-01-11T06:22:02.906Z,100320.59
2023-01-11T06:24:30.600Z,100314.19
2023-01-11T06:26:58.286Z,100312.38
2023-01-11T06:29:26.064Z,100315.28
2023-01-11T06:31:53.923Z,100308.19
2023-01-11T06:34:21.701Z,100301.66
2023-01-11T06:36:49.420Z,100296.22
2023-01-11T06:39:18.470Z,100293.25
2023-01-11T06:41:46.217Z,100301.38
2023-01-11T06:44:13.924Z,100296.56
2023-01-11T06:46:41.677Z,100293.19
2023-01-11T06:49:09.407Z,100299.06
2023-01-11T06:51:37.260Z,100294.44
2023-01-11T06:54:04.943Z,100286.16
2023-01-11T06:56:34.003Z,100297.44
2023-01-11T06:59:01.721Z,100288.97
2023-01-11T07:01:30.569Z,100288.38
2023-01-11T07:03:58.432Z,100278.78
2023-01-11T07:06:26.180Z,100286.94
2023-01-11T07:08:53.811Z,100289.31
2023-01-11T07:11:21.508Z,100284.72
2023-01-11T07:13:50.561Z,100285.97
2023-01-11T07:16:19.017Z,100284.59
2023-01-11T07:18:46.937Z,100286.13
2023-01-11T07:21:14.717Z,100281.66
2023-01-11T07:23:42.395Z,100274.69
2023-01-11T07:26:10.157Z,100282.78
2023-01-11T07:28:37.892Z,100280.41
2023-01-11T07:31:07.195Z,100280.22
2023-01-11T07:33:35.087Z,100287.88
2023-01-11T07:36:05.459Z,100277.44
2023-01-11T07:38:33.620Z,100285.09
2023-01-11T07:41:21.411Z,100289.25
2023-01-11T07:43:48.119Z,100293.59
2023-01-11T07:46:17.459Z,100297.22
2023-01-11T07:48:45.284Z,100293.88
2023-01-11T07:51:13.406Z,100288.72
2023-01-11T07:53:41.078Z,100301.13
2023-01-11T07:56:09.001Z,100292.06
2023-01-11T07:58:36.720Z,100293.03
2023-01-11T08:01:04.505Z,100303.06
2023-01-11T08:03:33.751Z,100292.47
2023-01-11T08:06:01.560Z,100295.69
2023-01-11T08:08:29.343Z,100297.78
2023-01-11T08:11:11.015Z,100296.13
2023-01-11T08:13:56.583Z,100294.47
2023-01-11T08:16:24.780Z,100294.47
2023-01-11T08:18:53.809Z,100294.16
2023-01-11T08:21:22.203Z,100295.53
2023-01-11T08:23:49.915Z,100291.22
2023-01-11T08:26:18.059Z,100292.19
2023-01-11T08:28:46.013Z,100288.44
2023-01-11T08:31:13.727Z,100283.78
2023-01-11T08:33:41.571Z,100289.91
2023-01-11T08:36:12.725Z,100288.56
2023-01-11T08:38:40.911Z,100291.06
2023-01-11T08:41:10.658Z,100288.56
2023-01-11T08:43:38.411Z,100291.91
2023-01-11T08:46:06.538Z,100297.72
2023-01-11T08:48:34.320Z,100290.31
2023-01-11T08:51:02.051Z,100290.47
2023-01-11T08:53:31.102Z,100294.94
2023-01-11T08:55:58.764Z,100295.47
2023-01-11T08:58:26.497Z,100292.38
2023-01-11T09:00:54.449Z,100300.06
2023-01-11T09:03:22.225Z,100300.31
2023-01-11T09:05:50.146Z,100311.22
2023-01-11T09:08:17.924Z,100297.66
2023-01-11T09:10:47.025Z,100307.16
2023-01-11T09:13:14.764Z,100307.69
2023-01-11T09:15:42.651Z,100307.69
2023-01-11T09:18:10.305Z,100300.44
2023-01-11T09:20:37.993Z,100308.53
2023-01-11T09:23:05.963Z,100303.09
2023-01-11T09:25:34.183Z,100305.59
2023-01-11T09:28:03.213Z,100310.88
2023-01-11T09:30:31.342Z,100308.72
2023-01-11T09:32:59.178Z,100305.72
2023-01-11T09:35:27.098Z,100315.50
2023-01-11T09:37:56.607Z,100313.53
2023-01-11T09:40:31.227Z,100314.09
2023-01-11T09:43:01.620Z,100315.28
2023-01-11T09:45:32.589Z,100315.75
2023-01-11T09:48:11.689Z,100315.44
2023-01-11T09:50:45.007Z,100308.72
2023-01-11T09:53:19.263Z,100315.97
2023-01-11T09:55:52.180Z,100319.31
2023-01-11T09:58:49.813Z,100316.50
2023-01-11T10:01:24.867Z,100317.72
2023-01-11T10:04:32.949Z,100322.88
2023-01-11T10:07:27.116Z,100321.59
2023-01-11T10:18:44.435Z,100326.66
2023-01-11T10:19:33.081Z,100317.72
2023-01-11T10:21:54.682Z,100320.75
2023-01-11T10:24:26.823Z,100321.16
2023-01-11T10:26:59.127Z,100328.47
2023-01-11T10:29:49.772Z,100331.50
2023-01-11T10:32:36.953Z,100332.88
2023-01-11T10:35:41.158Z,100342.16
2023-01-11T10:38:30.892Z,100339.22
2023-01-11T10:41:11.988Z,100344.88
2023-01-11T10:43:44.462Z,100351.56
2023-01-11T10:46:16.565Z,100356.72
2023-01-11T10:48:45.953Z,100366.22
2023-01-11T10:51:27.366Z,100358.97
2023-01-11T10:54:02.738Z,100359.84
2023-01-11T10:57:01.763Z,100353.78
2023-01-11T10:59:50.704Z,100353.84
2023-01-11T11:02:34.292Z,100351.34
2023-01-11T11:05:14.821Z,100354.03
2023-01-11T11:07:50.382Z,100343.81
2023-01-11T11:10:24.861Z,100335.31
2023-01-11T11:12:59.824Z,100328.53
2023-01-11T11:15:36.409Z,100339.59
2023-01-11T11:18:04.289Z,100334.94
2023-01-11T11:20:33.883Z,100329.34
2023-01-11T11:23:04.395Z,100325.78
2023-01-11T11:25:34.121Z,100331.00
2023-01-11T11:28:06.702Z,100320.56
2023-01-11T11:30:38.230Z,100318.97
2023-01-11T11:33:17.174Z,100311.03
2023-01-11T11:35:46.340Z,100308.06
2023-01-11T11:38:24.436Z,100305.09
2023-01-11T11:40:59.317Z,100303.44
2023-01-11T11:43:28.505Z,100307.44
2023-01-11T11:45:57.876Z,100303.44
2023-01-11T11:48:27.157Z,100308.56
2023-01-11T11:50:56.983Z,100309.88
2023-01-11T11:53:33.821Z,100303.91
2023-01-11T11:56:08.013Z,100311.06
2023-01-11T11:58:35.836Z,100310.25
2023-01-11T12:01:08.151Z,100309.09
2023-01-11T12:03:36.112Z,100312.41
2023-01-11T12:06:07.448Z,100311.59
2023-01-11T12:08:37.561Z,100310.09
2023-01-11T12:11:08.296Z,100318.09
2023-01-11T12:13:37.566Z,100326.38
2023-01-11T12:16:08.013Z,100311.75
2023-01-11T12:18:42.946Z,100316.03
2023-01-11T12:21:22.063Z,100314.56
2023-01-11T12:24:10.558Z,100311.38
2023-01-11T12:26:45.834Z,100314.88
2023-01-11T12:29:37.169Z,100310.06
2023-01-11T12:32:19.070Z,100312.88
2023-01-11T12:35:02.016Z,100317.53
2023-01-11T12:37:46.176Z,100322.53
2023-01-11T12:40:22.602Z,100319.69
2023-01-11T12:43:07.077Z,100332.66
2023-01-11T12:45:46.180Z,100336.31
2023-01-11T12:48:42.165Z,100349.59
2023-01-11T12:51:19.296Z,100354.75
2023-01-11T12:54:00.451Z,100360.75
2023-01-11T12:56:48.316Z,100358.25
2023-01-11T12:59:33.480Z,100361.06
2023-01-11T13:02:19.640Z,100355.28
2023-01-11T13:04:55.757Z,100364.56
2023-01-11T13:07:41.757Z,100358.25
2023-01-11T13:10:27.009Z,100358.28
2023-01-11T13:13:01.084Z,100358.28
2023-01-11T13:15:35.945Z,100365.56
2023-01-11T13:18:16.106Z,100363.59
2023-01-11T13:21:01.355Z,100361.47
2023-01-11T13:23:39.140Z,100372.88
2023-01-11T13:26:17.284Z,100383.19
2023-01-11T13:28:50.599Z,100369.41
2023-01-11T13:31:19.764Z,100377.88
2023-01-11T13:33:53.416Z,100377.41
2023-01-11T13:36:26.672Z,100385.69
2023-01-11T13:38:59.161Z,100372.25
2023-01-11T13:41:32.195Z,100370.25
2023-01-11T13:44:06.485Z,100374.75
2023-01-11T13:46:48.348Z,100384.41
2023-01-11T13:49:27.609Z,100379.53
2023-01-11T13:52:00.482Z,100385.69
2023-01-11T13:54:36.630Z,100391.66
2023-01-11T13:57:08.209Z,100397.16
2023-01-11T13:59:44.235Z,100414.28
2023-01-11T14:02:19.784Z,100411.28
2023-01-11T14:04:53.278Z,100403.75
2023-01-11T14:07:34.684Z,100414.25
2023-01-11T14:10:19.890Z,100419.72
2023-01-11T14:13:02.288Z,100413.56
2023-01-11T14:15:37.812Z,100419.06
2023-01-11T14:18:22.153Z,100423.34
2023-01-11T14:21:01.588Z,100439.31
2023-01-11T14:23:37.268Z,100434.34
2023-01-11T14:26:25.481Z,100436.84
2023-01-11T14:29:08.011Z,100437.69
2023-01-11T14:31:54.933Z,100445.13
2023-01-11T14:35:03.931Z,100441.63
2023-01-11T14:38:07.035Z,100445.97
2023-01-11T14:40:51.930Z,100463.53
2023-01-11T14:43:42.909Z,100469.69
2023-01-11T14:46:26.671Z,100480.94
2023-01-11T14:49:10.656Z,100488.75
2023-01-11T14:51:54.130Z,100489.88
2023-01-11T14:54:26.713Z,100499.34
2023-01-11T14:56:56.465Z,100505.97
2023-01-11T14:59:38.596Z,100505.63
2023-01-11T15:02:24.413Z,100512.63
2023-01-11T15:05:28.601Z,100505.59
2023-01-11T15:08:11.202Z,100512.41
2023-01-11T15:10:41.915Z,100515.84
2023-01-11T15:13:15.888Z,100524.66
2023-01-11T15:16:01.272Z,100516.16
2023-01-11T15:18:29.448Z,100519.94
2023-01-11T15:21:05.537Z,100531.25
2023-01-11T15:23:36.900Z,100530.72
2023-01-11T15:26:07.946Z,100528.41
2023-01-11T15:28:44.330Z,100533.00
2023-01-11T15:31:34.141Z,100537.34
2023-01-11T15:34:05.087Z,100546.28
2023-01-11T15:37:06.691Z,100553.97
2023-01-11T15:39:41.344Z,100553.28
2023-01-11T15:42:38.898Z,100557.38
2023-01-11T15:45:32.299Z,100562.00
2023-01-11T15:48:19.719Z,100565.63
2023-01-11T15:51:15.050Z,100568.75
2023-01-11T15:54:34.471Z,100573.06
2023-01-11T15:58:00.143Z,100577.31
2023-01-11T16:00:52.862Z,100585.28
2023-01-11T16:04:02.185Z,100592.75
2023-01-11T16:06:52.963Z,100607.16
2023-01-11T16:09:47.247Z,100605.47
2023-01-11T16:12:35.593Z,100610.25
2023-01-11T16:15:17.573Z,100612.38
2023-01-11T16:17:47.188Z,100620.34
2023-01-11T16:20:24.377Z,100627.63
2023-01-11T16:22:55.793Z,100630.88
2023-01-11T16:25:28.913Z,100625.00
2023-01-11T16:27:58.476Z,100642.06
2023-01-11T16:30:27.739Z,100649.06
2023-01-11T16:33:17.650Z,100654.69
2023-01-11T16:35:45.587Z,100658.16
2023-01-11T16:38:17.820Z,100659.16
2023-01-11T16:40:50.680Z,100660.66
2023-01-11T16:43:22.841Z,100665.28
2023-01-11T16:45:54.074Z,100659.97
2023-01-11T16:48:23.413Z,100664.88
2023-01-11T16:51:00.576Z,100672.16
2023-01-11T16:53:30.359Z,100671.50
2023-01-11T16:56:05.140Z,100675.41
2023-01-11T16:58:34.398Z,100675.69
2023-01-11T17:01:04.777Z,100675.31
2023-01-11T17:03:34.237Z,100684.94
2023-01-11T17:06:16.008Z,100679.91
2023-01-11T17:08:45.297Z,100691.50
2023-01-11T17:11:26.516Z,100691.50
2023-01-11T17:14:38.940Z,100693.31
2023-01-11T17:17:09.293Z,100706.34
2023-01-11T17:19:42.900Z,100718.75
2023-01-11T17:22:18.401Z,100720.31
2023-01-11T17:24:51.275Z,100729.09
2023-01-11T17:27:23.782Z,100745.28
2023-01-11T17:29:55.158Z,100737.47
2023-01-11T17:32:28.057Z,100739.47
2023-01-11T17:34:56.261Z,100737.78
2023-01-11T17:37:25.208Z,100732.75
2023-01-11T17:39:53.823Z,100742.53
2023-01-11T17:42:40.955Z,100741.81
2023-01-11T17:45:21.004Z,100746.28
2023-01-11T17:47:51.377Z,100750.63
2023-01-11T17:50:22.672Z,100743.38
2023-01-11T17:52:55.128Z,100744.66
2023-01-11T17:55:25.213Z,100757.91
2023-01-11T17:58:20.122Z,100764.47
2023-01-11T18:01:10.749Z,100773.84
2023-01-11T18:03:41.986Z,100785.28
2023-01-11T18:06:14.186Z,100779.16
2023-01-11T18:08:47.387Z,100784.44
2023-01-11T18:11:24.702Z,100801.34
2023-01-11T18:13:55.025Z,100807.63
2023-01-11T18:16:23.670Z,100810.41
2023-01-11T18:18:53.747Z,100815.84
2023-01-11T18:21:43.309Z,100818.78
2023-01-11T18:24:33.652Z,100819.75
2023-01-11T18:27:31.889Z,100832.19
2023-01-11T18:30:06.097Z,100832.72
2023-01-11T18:32:37.655Z,100834.97
2023-01-11T18:35:13.371Z,100839.44
2023-01-11T18:37:41.188Z,100839.69
2023-01-11T18:40:12.881Z,100834.41
2023-01-11T18:42:40.882Z,100839.88
2023-01-11T18:45:12.092Z,100839.88
2023-01-11T18:47:40.859Z,100833.56
2023-01-11T18:50:11.411Z,100843.88
2023-01-11T18:52:39.154Z,100851.84
2023-01-11T18:55:09.032Z,100856.44
2023-01-11T18:57:36.674Z,100852.25
2023-01-11T19:00:05.353Z,100849.63
2023-01-11T19:02:42.411Z,100847.94
2023-01-11T19:05:13.097Z,100845.28
2023-01-11T19:07:40.816Z,100850.31
2023-01-11T19:10:10.697Z,100844.00
2023-01-11T19:12:38.401Z,100862.56
2023-01-11T19:15:06.887Z,100874.19
2023-01-11T19:17:35.895Z,100879.88
2023-01-11T19:20:09.112Z,100887.25
2023-01-11T19:22:37.488Z,100876.94
2023-01-11T19:25:06.734Z,100887.13
2023-01-11T19:27:34.462Z,100885.31
2023-01-11T19:30:02.087Z,100895.19
2023-01-11T19:32:29.779Z,100891.59
2023-01-11T19:34:59.575Z,100883.91
2023-01-11T19:37:27.767Z,100879.59
2023-01-11T19:39:55.508Z,100877.06
2023-01-11T19:42:23.875Z,100879.44
2023-01-11T19:44:51.701Z,100884.75
2023-01-11T19:47:19.473Z,100881.78
2023-01-11T19:49:47.351Z,100886.25
2023-01-11T19:52:19.251Z,100874.81
2023-01-11T19:54:47.729Z,100874.63
2023-01-11T19:57:18.035Z,100883.41
2023-01-11T19:59:45.902Z,100877.28
2023-01-11T20:02:15.090Z,100867.94
2023-01-11T20:04:43.024Z,100868.34
2023-01-11T20:07:12.618Z,100860.53
2023-01-11T20:09:41.728Z,100869.31
2023-01-11T20:12:11.622Z,100868.34
2023-01-11T20:14:40.557Z,100871.00
2023-01-11T20:17:09.306Z,100870.44
2023-01-11T20:19:37.052Z,100875.16
2023-01-11T20:22:04.918Z,100870.13
2023-01-11T20:24:32.597Z,100871.69
2023-01-11T20:27:02.952Z,100882.03
2023-01-11T20:29:30.751Z,100884.63
2023-01-11T20:32:18.645Z,100880.03
2023-01-11T20:34:46.269Z,100871.38
2023-01-11T20:37:15.000Z,100867.19
2023-01-11T20:39:42.629Z,100863.00
2023-01-11T20:42:12.523Z,100868.28
2023-01-11T20:44:40.370Z,100866.34
2023-01-11T20:47:08.055Z,100858.53
2023-01-11T20:49:35.695Z,100865.94
2023-01-11T20:52:03.781Z,100865.81
2023-01-11T20:54:31.578Z,100855.84
2023-01-11T20:57:02.124Z,100840.78
2023-01-11T20:59:32.320Z,100850.97
2023-01-11T21:02:00.142Z,100845.78
2023-01-11T21:04:27.841Z,100847.06
2023-01-11T21:06:55.566Z,100850.38
2023-01-11T21:09:23.234Z,100845.63
2023-01-11T21:11:53.779Z,100842.44
2023-01-11T21:14:21.542Z,100840.59
2023-01-11T21:16:50.646Z,100834.75
2023-01-11T21:19:18.371Z,100834.03
2023-01-11T21:21:47.060Z,100841.84
2023-01-11T21:24:16.836Z,100853.16
2023-01-11T21:26:45.715Z,100845.63
2023-01-11T21:29:14.225Z,100847.31
2023-01-11T21:31:42.385Z,100842.00
2023-01-11T21:34:13.520Z,100833.09
2023-01-11T21:36:41.643Z,100836.88
2023-01-11T21:39:09.522Z,100835.50
2023-01-11T21:41:55.014Z,100818.09
2023-01-11T21:44:25.831Z,100818.34
2023-01-11T21:46:55.158Z,100820.03
2023-01-11T21:49:24.667Z,100828.69
2023-01-11T21:51:52.755Z,100833.13
2023-01-11T21:54:20.859Z,100834.94
2023-01-11T21:56:49.433Z,100846.09
2023-01-11T21:59:17.581Z,100842.34
2023-01-11T22:01:46.793Z,100846.13
2023-01-11T22:04:16.020Z,100851.31
2023-01-11T22:06:50.862Z,100855.50
2023-01-11T22:09:19.002Z,100841.53
2023-01-11T22:11:46.985Z,100850.75
2023-01-11T22:14:14.698Z,100846.81
2023-01-11T22:16:42.444Z,100853.47
2023-01-11T22:19:10.317Z,100857.69
2023-01-11T22:21:38.673Z,100865.09
2023-01-11T22:24:10.888Z,100871.22
2023-01-11T22:26:39.256Z,100866.34
2023-01-11T22:29:15.716Z,100857.44
2023-01-11T22:31:46.837Z,100858.41
2023-01-11T22:34:15.345Z,100868.03
2023-01-11T22:36:43.376Z,100856.47
2023-01-11T22:39:13.801Z,100858.56
2023-01-11T22:41:41.718Z,100858.16
2023-01-11T22:44:10.256Z,100865.25
2023-01-11T22:46:38.695Z,100871.13
2023-01-11T22:49:07.346Z,100867.63
2023-01-11T22:51:35.869Z,100865.44
2023-01-11T22:54:04.899Z,100870.84
2023-01-11T22:56:34.402Z,100873.78
2023-01-11T22:59:02.307Z,100871.38
2023-01-11T23:01:31.708Z,100885.06
2023-01-11T23:03:59.957Z,100887.31
2023-01-11T23:06:29.657Z,100893.53
2023-01-11T23:08:58.312Z,100887.88
2023-01-11T23:11:45.391Z,100889.28
2023-01-11T23:14:16.524Z,100892.38
2023-01-11T23:16:45.582Z,100883.22
2023-01-11T23:19:14.552Z,100894.59
2023-01-11T23:21:43.387Z,100889.91
2023-01-11T23:24:12.763Z,100888.78
2023-01-11T23:26:40.902Z,100888.50
2023-01-11T23:29:09.010Z,100873.44
2023-01-11T23:31:38.662Z,100874.28
2023-01-11T23:34:08.414Z,100867.31
2023-01-11T23:36:37.651Z,100868.72
2023-01-11T23:39:05.666Z,100855.06
2023-01-11T23:41:50.910Z,100856.72
2023-01-11T23:44:19.092Z,100846.00
2023-01-11T23:47:05.790Z,100830.50
2023-01-11T23:49:33.812Z,100827.56
2023-01-11T23:52:01.820Z,100826.03
2023-01-11T23:54:31.515Z,100827.28
2023-01-11T23:57:00.020Z,100820.47
2023-01-11T23:59:27.730Z,100825.47
